createdAt,value
2018-09-24T00:01:29.689Z,101264.00
2018-09-24T00:03:32.697Z,101262.00
2018-09-24T00:05:35.736Z,101260.00
2018-09-24T00:07:38.743Z,101266.00
2018-09-24T00:09:41.749Z,101274.00
2018-09-24T00:11:44.813Z,101284.00
2018-09-24T00:13:47.868Z,101287.00
2018-09-24T00:15:50.887Z,101285.00
2018-09-24T00:17:53.910Z,101284.00
2018-09-24T00:19:58.641Z,101303.00
2018-09-24T00:22:01.659Z,101303.00
2018-09-24T00:24:05.180Z,101308.00
2018-09-24T00:26:08.237Z,101309.00
2018-09-24T00:28:11.250Z,101306.00
2018-09-24T00:30:14.300Z,101318.00
2018-09-24T00:32:17.332Z,101322.00
2018-09-24T00:34:20.635Z,101332.00
2018-09-24T00:36:23.644Z,101325.00
2018-09-24T00:38:28.395Z,101329.00
2018-09-24T00:40:31.504Z,101342.00
2018-09-24T00:42:34.548Z,101344.00
2018-09-24T00:44:37.637Z,101350.00
2018-09-24T00:46:40.861Z,101355.00
2018-09-24T00:48:43.885Z,101358.00
2018-09-24T00:50:47.170Z,101368.00
2018-09-24T00:52:50.359Z,101370.00
2018-09-24T00:54:53.415Z,101372.00
2018-09-24T00:56:58.107Z,101378.00
2018-09-24T00:59:01.718Z,101384.00
2018-09-24T01:01:04.790Z,101385.00
2018-09-24T01:03:07.845Z,101396.00
2018-09-24T01:05:11.225Z,101400.00
2018-09-24T01:07:14.299Z,101402.00
2018-09-24T01:09:17.367Z,101410.00
2018-09-24T01:11:20.460Z,101408.00
2018-09-24T01:13:23.508Z,101410.00
2018-09-24T01:15:28.624Z,101416.00
2018-09-24T01:17:31.694Z,101417.00
2018-09-24T01:19:34.724Z,101428.00
2018-09-24T01:21:38.077Z,101425.00
2018-09-24T01:23:41.128Z,101436.00
2018-09-24T01:25:44.114Z,101442.00
2018-09-24T01:27:47.238Z,101448.00
2018-09-24T01:29:50.295Z,101451.00
2018-09-24T01:31:53.336Z,101459.00
2018-09-24T01:33:57.760Z,101463.00
2018-09-24T01:36:00.848Z,101466.00
2018-09-24T01:38:03.943Z,101468.00
2018-09-24T01:40:07.331Z,101469.00
2018-09-24T01:42:10.375Z,101467.00
2018-09-24T01:44:13.455Z,101473.00
2018-09-24T01:46:16.497Z,101481.00
2018-09-24T01:48:19.529Z,101474.00
2018-09-24T01:50:22.583Z,101482.00
2018-09-24T01:52:25.685Z,101487.00
2018-09-24T01:54:30.499Z,101494.00
2018-09-24T01:56:33.725Z,101508.00
2018-09-24T01:58:37.848Z,101515.00
2018-09-24T02:00:40.881Z,101516.00
2018-09-24T02:02:43.918Z,101515.00
2018-09-24T02:04:47.151Z,101521.00
2018-09-24T02:06:50.250Z,101521.00
2018-09-24T02:08:53.251Z,101523.00
2018-09-24T02:10:58.280Z,101530.00
2018-09-24T02:13:01.494Z,101530.00
2018-09-24T02:15:04.968Z,101535.00
2018-09-24T02:17:18.647Z,101542.00
2018-09-24T02:19:21.659Z,101545.00
2018-09-24T02:21:24.963Z,101546.00
2018-09-24T02:23:29.488Z,101555.00
2018-09-24T02:25:33.034Z,101560.00
2018-09-24T02:27:36.075Z,101559.00
2018-09-24T02:29:39.609Z,101557.00
2018-09-24T02:31:42.648Z,101562.00
2018-09-24T02:33:45.896Z,101565.00
2018-09-24T02:35:49.403Z,101574.00
2018-09-24T02:37:52.451Z,101574.00
2018-09-24T02:39:55.527Z,101574.00
2018-09-24T02:42:00.382Z,101579.00
2018-09-24T02:44:03.461Z,101581.00
2018-09-24T02:46:06.475Z,101586.00
2018-09-24T02:48:09.467Z,101591.00
2018-09-24T02:50:12.533Z,101594.00
2018-09-24T02:52:15.569Z,101592.00
2018-09-24T02:54:18.586Z,101595.00
2018-09-24T02:56:21.618Z,101593.00
2018-09-24T02:58:24.844Z,101596.00
2018-09-24T03:00:29.674Z,101594.00
2018-09-24T03:02:32.697Z,101603.00
2018-09-24T03:04:35.765Z,101601.00
2018-09-24T03:06:39.180Z,101607.00
2018-09-24T03:08:42.165Z,101611.00
2018-09-24T03:10:45.199Z,101617.00
2018-09-24T03:12:50.038Z,101617.00
2018-09-24T03:14:53.093Z,101613.00
2018-09-24T03:16:57.826Z,101618.00
2018-09-24T03:19:00.882Z,101625.00
2018-09-24T03:21:03.982Z,101624.00
2018-09-24T03:23:07.424Z,101630.00
2018-09-24T03:25:17.329Z,101632.00
2018-09-24T03:27:20.911Z,101625.00
2018-09-24T03:29:25.173Z,101636.00
2018-09-24T03:31:35.675Z,101637.00
2018-09-24T03:33:38.701Z,101645.00
2018-09-24T03:35:41.720Z,101645.00
2018-09-24T03:37:44.779Z,101645.00
2018-09-24T03:39:47.841Z,101643.00
2018-09-24T03:41:50.936Z,101643.00
2018-09-24T03:43:53.937Z,101642.00
2018-09-24T03:45:59.003Z,101651.00
2018-09-24T03:48:02.020Z,101652.00
2018-09-24T03:50:05.362Z,101654.00
2018-09-24T03:52:08.429Z,101651.00
2018-09-24T03:54:11.454Z,101665.00
2018-09-24T03:56:14.515Z,101665.00
2018-09-24T03:58:17.522Z,101666.00
2018-09-24T04:00:20.530Z,101663.00
2018-09-24T04:02:23.613Z,101670.00
2018-09-24T04:04:32.596Z,101666.00
2018-09-24T04:06:41.434Z,101672.00
2018-09-24T04:08:50.211Z,101674.00
2018-09-24T04:10:58.963Z,101675.00
2018-09-24T04:13:07.716Z,101678.00
2018-09-24T04:15:16.646Z,101689.00
2018-09-24T04:17:25.256Z,101682.00
2018-09-24T04:19:36.056Z,101693.00
2018-09-24T04:21:44.809Z,101685.00
2018-09-24T04:23:53.557Z,101696.00
2018-09-24T04:26:02.482Z,101703.00
2018-09-24T04:28:11.206Z,101695.00
2018-09-24T04:30:20.165Z,101703.00
2018-09-24T04:32:29.240Z,101705.00
2018-09-24T04:34:37.946Z,101715.00
2018-09-24T04:36:46.832Z,101713.00
2018-09-24T04:38:55.573Z,101717.00
2018-09-24T04:41:05.675Z,101722.00
2018-09-24T04:43:14.678Z,101718.00
2018-09-24T04:45:23.453Z,101718.00
2018-09-24T04:47:32.338Z,101727.00
2018-09-24T04:49:41.198Z,101731.00
2018-09-24T04:51:49.922Z,101730.00
2018-09-24T04:53:58.611Z,101739.00
2018-09-24T04:56:07.629Z,101742.00
2018-09-24T04:58:16.565Z,101741.00
2018-09-24T05:00:25.303Z,101754.00
2018-09-24T05:02:40.258Z,101761.00
2018-09-24T05:04:55.220Z,101764.00
2018-09-24T05:07:10.195Z,101764.00
2018-09-24T05:09:25.370Z,101773.00
2018-09-24T05:11:40.569Z,101773.00
2018-09-24T05:13:55.624Z,101776.00
2018-09-24T05:16:10.597Z,101775.00
2018-09-24T05:18:25.402Z,101779.00
2018-09-24T05:20:40.310Z,101779.00
2018-09-24T05:22:49.167Z,101779.00
2018-09-24T05:24:58.264Z,101789.00
2018-09-24T05:27:07.036Z,101786.00
2018-09-24T05:29:16.085Z,101777.00
2018-09-24T05:31:24.939Z,101790.00
2018-09-24T05:33:35.424Z,101797.00
2018-09-24T05:35:45.351Z,101798.00
2018-09-24T05:37:54.156Z,101796.00
2018-09-24T05:40:04.232Z,101798.00
2018-09-24T05:42:13.515Z,101803.00
2018-09-24T05:44:22.392Z,101809.00
2018-09-24T05:46:31.233Z,101809.00
2018-09-24T05:48:40.077Z,101810.00
2018-09-24T05:50:48.738Z,101809.00
2018-09-24T05:52:57.644Z,101803.00
2018-09-24T05:55:06.388Z,101805.00
2018-09-24T05:57:15.228Z,101814.00
2018-09-24T05:59:24.049Z,101813.00
2018-09-24T06:01:34.382Z,101812.00
2018-09-24T06:03:43.167Z,101820.00
2018-09-24T06:05:51.951Z,101831.00
2018-09-24T06:08:00.905Z,101823.00
2018-09-24T06:10:09.912Z,101832.00
2018-09-24T06:12:18.746Z,101831.00
2018-09-24T06:14:27.725Z,101840.00
2018-09-24T06:16:36.531Z,101837.00
2018-09-24T06:18:45.326Z,101842.00
2018-09-24T06:20:54.005Z,101852.00
2018-09-24T06:23:04.324Z,101840.00
2018-09-24T06:25:13.140Z,101849.00
2018-09-24T06:27:21.983Z,101862.00
2018-09-24T06:29:30.818Z,101863.00
2018-09-24T06:31:39.850Z,101864.00
2018-09-24T06:33:48.448Z,101864.00
2018-09-24T06:35:57.721Z,101867.00
2018-09-24T06:38:06.498Z,101878.00
2018-09-24T06:40:15.276Z,101886.00
2018-09-24T06:42:24.019Z,101886.00
2018-09-24T06:44:34.459Z,101886.00
2018-09-24T06:46:43.164Z,101893.00
2018-09-24T06:48:51.981Z,101891.00
2018-09-24T06:51:00.767Z,101895.00
2018-09-24T06:53:09.658Z,101901.00
2018-09-24T06:55:18.377Z,101901.00
2018-09-24T06:57:28.279Z,101906.00
2018-09-24T06:59:37.323Z,101911.00
2018-09-24T07:01:45.897Z,101916.00
2018-09-24T07:03:54.540Z,101909.00
2018-09-24T07:06:04.673Z,101918.00
2018-09-24T07:08:13.296Z,101934.00
2018-09-24T07:10:22.073Z,101927.00
2018-09-24T07:12:30.920Z,101925.00
2018-09-24T07:14:39.736Z,101932.00
2018-09-24T07:16:48.588Z,101933.00
2018-09-24T07:18:57.251Z,101939.00
2018-09-24T07:21:06.030Z,101946.00
2018-09-24T07:23:14.872Z,101938.00
2018-09-24T07:25:23.903Z,101944.00
2018-09-24T07:27:34.317Z,101952.00
2018-09-24T07:29:43.131Z,101955.00
2018-09-24T07:31:52.180Z,101959.00
2018-09-24T07:34:00.777Z,101957.00
2018-09-24T07:36:09.549Z,101961.00
2018-09-24T07:38:18.415Z,101973.00
2018-09-24T07:40:27.106Z,101982.00
2018-09-24T07:42:36.012Z,101976.00
2018-09-24T07:44:44.666Z,101979.00
2018-09-24T07:46:53.380Z,101986.00
2018-09-24T07:49:02.091Z,101992.00
2018-09-24T07:51:10.751Z,101988.00
2018-09-24T07:53:19.469Z,101990.00
2018-09-24T07:55:28.230Z,102004.00
2018-09-24T07:57:36.864Z,102002.00
2018-09-24T07:59:45.648Z,101994.00
2018-09-24T08:01:54.634Z,102001.00
2018-09-24T08:04:05.292Z,102005.00
2018-09-24T08:06:14.259Z,102006.00
2018-09-24T08:08:22.968Z,102007.00
2018-09-24T08:10:31.796Z,102013.00
2018-09-24T08:12:40.629Z,102020.00
2018-09-24T08:14:49.628Z,102022.00
2018-09-24T08:16:58.506Z,102022.00
2018-09-24T08:19:07.285Z,102033.00
2018-09-24T08:21:16.459Z,102047.00
2018-09-24T08:23:25.151Z,102048.00
2018-09-24T08:25:35.728Z,102050.00
2018-09-24T08:27:44.569Z,102052.00
2018-09-24T08:29:53.425Z,102056.00
2018-09-24T08:32:02.301Z,102062.00
2018-09-24T08:34:11.295Z,102056.00
2018-09-24T08:36:20.215Z,102057.00
2018-09-24T08:38:28.999Z,102060.00
2018-09-24T08:40:37.892Z,102055.00
2018-09-24T08:42:46.800Z,102064.00
2018-09-24T08:44:55.702Z,102066.00
2018-09-24T08:47:04.489Z,102062.00
2018-09-24T08:49:13.105Z,102052.00
2018-09-24T08:51:21.842Z,102074.00
2018-09-24T08:53:30.532Z,102074.00
2018-09-24T08:55:39.664Z,102077.00
2018-09-24T08:57:48.508Z,102090.00
2018-09-24T08:59:57.657Z,102077.00
2018-09-24T09:02:06.508Z,102080.00
2018-09-24T09:04:15.224Z,102087.00
2018-09-24T09:06:23.989Z,102088.00
2018-09-24T09:08:34.486Z,102094.00
2018-09-24T09:10:43.178Z,102093.00
2018-09-24T09:12:51.962Z,102085.00
2018-09-24T09:15:00.768Z,102103.00
2018-09-24T09:17:09.419Z,102108.00
2018-09-24T09:19:18.314Z,102088.00
2018-09-24T09:21:27.127Z,102119.00
2018-09-24T09:23:35.879Z,102105.00
2018-09-24T09:25:44.887Z,102121.00
2018-09-24T09:27:53.547Z,102118.00
2018-09-24T09:30:02.756Z,102106.00
2018-09-24T09:32:11.631Z,102127.00
2018-09-24T09:34:20.404Z,102133.00
2018-09-24T09:36:29.222Z,102143.00
2018-09-24T09:38:38.018Z,102131.00
2018-09-24T09:40:46.744Z,102139.00
2018-09-24T09:42:55.656Z,102141.00
2018-09-24T09:45:05.488Z,102037.00
2018-09-24T09:47:14.465Z,102127.00
2018-09-24T09:49:23.556Z,102120.00
2018-09-24T09:51:32.431Z,102116.00
2018-09-24T09:53:41.332Z,102118.00
2018-09-24T09:55:50.027Z,102113.00
2018-09-24T09:57:58.918Z,102115.00
2018-09-24T10:00:07.799Z,102113.00
2018-09-24T10:02:16.588Z,102133.00
2018-09-24T10:04:25.448Z,102137.00
2018-09-24T10:06:35.691Z,102126.00
2018-09-24T10:08:44.672Z,102123.00
2018-09-24T10:10:53.555Z,102123.00
2018-09-24T10:13:02.391Z,102122.00
2018-09-24T10:15:11.216Z,102113.00
2018-09-24T10:17:19.947Z,102123.00
2018-09-24T10:19:28.776Z,102128.00
2018-09-24T10:21:37.656Z,102124.00
2018-09-24T10:23:46.608Z,102132.00
2018-09-24T10:25:55.607Z,102130.00
2018-09-24T10:28:04.360Z,102145.00
2018-09-24T10:30:13.135Z,102145.00
2018-09-24T10:32:21.931Z,102142.00
2018-09-24T10:34:30.759Z,102148.00
2018-09-24T10:36:39.858Z,102146.00
2018-09-24T10:38:48.583Z,102150.00
2018-09-24T10:40:57.390Z,102150.00
2018-09-24T10:43:06.212Z,102155.00
2018-09-24T10:45:14.986Z,102161.00
2018-09-24T10:47:23.833Z,102168.00
2018-09-24T10:49:34.388Z,102153.00
2018-09-24T10:51:43.125Z,102159.00
2018-09-24T10:53:51.763Z,102167.00
2018-09-24T10:56:00.528Z,102161.00
2018-09-24T10:58:09.668Z,102159.00
2018-09-24T11:00:18.286Z,102169.00
2018-09-24T11:02:27.179Z,102168.00
2018-09-24T11:04:36.105Z,102160.00
2018-09-24T11:06:44.720Z,102177.00
2018-09-24T11:08:53.582Z,102167.00
2018-09-24T11:11:02.357Z,102167.00
2018-09-24T11:13:11.125Z,102169.00
2018-09-24T11:15:19.965Z,102174.00
2018-09-24T11:17:29.017Z,102171.00
2018-09-24T11:19:37.378Z,102174.00
2018-09-24T11:21:46.219Z,102184.00
2018-09-24T11:23:54.963Z,102178.00
2018-09-24T11:26:05.156Z,102172.00
2018-09-24T11:28:13.881Z,102168.00
2018-09-24T11:30:22.640Z,102179.00
2018-09-24T11:32:31.519Z,102171.00
2018-09-24T11:34:40.337Z,102169.00
2018-09-24T11:36:49.139Z,102185.00
2018-09-24T11:38:57.960Z,102180.00
2018-09-24T11:41:06.843Z,102185.00
2018-09-24T11:43:15.661Z,102188.00
2018-09-24T11:45:24.418Z,102192.00
2018-09-24T11:47:34.711Z,102177.00
2018-09-24T11:49:43.597Z,102172.00
2018-09-24T11:51:52.255Z,102175.00
2018-09-24T11:54:01.097Z,102186.00
2018-09-24T11:56:09.979Z,102182.00
2018-09-24T11:58:18.783Z,102182.00
2018-09-24T12:00:27.550Z,102161.00
2018-09-24T12:02:36.893Z,102186.00
2018-09-24T12:04:52.644Z,102205.00
2018-09-24T12:07:01.513Z,102202.00
2018-09-24T12:09:13.635Z,102201.00
2018-09-24T12:11:22.310Z,102191.00
2018-09-24T12:13:31.243Z,102206.00
2018-09-24T12:15:40.031Z,102207.00
2018-09-24T12:17:48.945Z,102197.00
2018-09-24T12:19:58.584Z,102189.00
2018-09-24T12:22:07.420Z,102189.00
2018-09-24T12:24:16.146Z,102185.00
2018-09-24T12:26:24.853Z,102192.00
2018-09-24T12:28:34.880Z,102190.00
2018-09-24T12:30:43.689Z,102178.00
2018-09-24T12:32:52.477Z,102179.00
2018-09-24T12:35:01.247Z,102185.00
2018-09-24T12:37:10.096Z,102190.00
2018-09-24T12:39:18.922Z,102193.00
2018-09-24T12:41:27.852Z,102195.00
2018-09-24T12:43:36.576Z,102196.00
2018-09-24T12:45:45.397Z,102211.00
2018-09-24T12:47:54.223Z,102211.00
2018-09-24T12:50:04.525Z,102219.00
2018-09-24T12:52:13.266Z,102237.00
2018-09-24T12:54:22.122Z,102266.00
2018-09-24T12:56:30.873Z,102284.00
2018-09-24T12:58:39.604Z,102284.00
2018-09-24T13:00:48.231Z,102286.00
2018-09-24T13:02:57.675Z,102277.00
2018-09-24T13:05:06.651Z,102267.00
2018-09-24T13:07:15.280Z,102272.00
2018-09-24T13:09:23.877Z,102247.00
2018-09-24T13:11:33.906Z,102240.00
2018-09-24T13:13:42.614Z,102238.00
2018-09-24T13:15:51.556Z,102243.00
2018-09-24T13:18:00.194Z,102229.00
2018-09-24T13:20:08.911Z,102232.00
2018-09-24T13:22:17.668Z,102224.00
2018-09-24T13:24:27.868Z,102229.00
2018-09-24T13:26:36.571Z,102224.00
2018-09-24T13:28:45.212Z,102217.00
2018-09-24T13:30:54.049Z,102227.00
2018-09-24T13:33:04.263Z,102218.00
2018-09-24T13:35:13.018Z,102229.00
2018-09-24T13:37:21.775Z,102230.00
2018-09-24T13:39:30.680Z,102211.00
2018-09-24T13:41:39.352Z,102219.00
2018-09-24T13:43:48.026Z,102229.00
2018-09-24T13:45:56.836Z,102246.00
2018-09-24T13:48:05.504Z,102243.00
2018-09-24T13:50:14.549Z,102251.00
2018-09-24T13:52:23.279Z,102256.00
2018-09-24T13:54:32.026Z,102258.00
2018-09-24T13:56:40.963Z,102262.00
2018-09-24T13:58:49.721Z,102262.00
2018-09-24T14:00:58.588Z,102257.00
2018-09-24T14:03:07.375Z,102259.00
2018-09-24T14:05:16.227Z,102247.00
2018-09-24T14:07:25.067Z,102241.00
2018-09-24T14:09:35.727Z,102238.00
2018-09-24T14:11:44.542Z,102241.00
2018-09-24T14:13:53.284Z,102242.00
2018-09-24T14:16:02.040Z,102241.00
2018-09-24T14:18:10.913Z,102238.00
2018-09-24T14:20:19.543Z,102242.00
2018-09-24T14:22:28.221Z,102234.00
2018-09-24T14:24:36.936Z,102234.00
2018-09-24T14:26:45.659Z,102230.00
2018-09-24T14:28:54.477Z,102226.00
2018-09-24T14:31:04.974Z,102228.00
2018-09-24T14:33:13.948Z,102219.00
2018-09-24T14:35:22.676Z,102220.00
2018-09-24T14:37:31.435Z,102221.00
2018-09-24T14:39:40.248Z,102225.00
2018-09-24T14:41:49.012Z,102229.00
2018-09-24T14:43:57.853Z,102229.00
2018-09-24T14:46:06.720Z,102232.00
2018-09-24T14:48:15.365Z,102232.00
2018-09-24T14:50:24.057Z,102234.00
2018-09-24T14:52:34.617Z,102238.00
2018-09-24T14:54:43.340Z,102245.00
2018-09-24T14:56:52.182Z,102244.00
2018-09-24T14:59:00.977Z,102242.00
2018-09-24T15:01:09.956Z,102253.00
2018-09-24T15:03:18.686Z,102239.00
2018-09-24T15:05:27.357Z,102245.00
2018-09-24T15:07:36.151Z,102239.00
2018-09-24T15:09:45.002Z,102251.00
2018-09-24T15:11:53.675Z,102250.00
2018-09-24T15:14:02.434Z,102240.00
2018-09-24T15:16:11.219Z,102233.00
2018-09-24T15:18:20.172Z,102239.00
2018-09-24T15:20:28.953Z,102237.00
2018-09-24T15:22:37.798Z,102233.00
2018-09-24T15:24:46.789Z,102242.00
2018-09-24T15:26:55.590Z,102243.00
2018-09-24T15:29:05.674Z,102247.00
2018-09-24T15:31:14.588Z,102242.00
2018-09-24T15:33:23.395Z,102242.00
2018-09-24T15:35:32.233Z,102243.00
2018-09-24T15:37:40.895Z,102253.00
2018-09-24T15:39:49.662Z,102258.00
2018-09-24T15:41:58.375Z,102264.00
2018-09-24T15:44:07.153Z,102265.00
2018-09-24T15:46:15.861Z,102261.00
2018-09-24T15:48:24.664Z,102264.00
2018-09-24T15:50:34.651Z,102256.00
2018-09-24T15:52:43.398Z,102270.00
2018-09-24T15:54:52.286Z,102266.00
2018-09-24T15:57:00.927Z,102266.00
2018-09-24T15:59:09.710Z,102266.00
2018-09-24T16:01:18.382Z,102260.00
2018-09-24T16:03:27.347Z,102269.00
2018-09-24T16:05:36.160Z,102264.00
2018-09-24T16:07:44.876Z,102273.00
2018-09-24T16:09:53.714Z,102277.00
2018-09-24T16:12:02.525Z,102286.00
2018-09-24T16:14:11.355Z,102296.00
2018-09-24T16:16:20.195Z,102296.00
2018-09-24T16:18:28.921Z,102302.00
2018-09-24T16:20:37.608Z,102300.00
2018-09-24T16:22:46.385Z,102313.00
2018-09-24T16:24:55.208Z,102311.00
2018-09-24T16:27:05.844Z,102316.00
2018-09-24T16:29:14.652Z,102313.00
2018-09-24T16:31:23.467Z,102320.00
2018-09-24T16:33:32.153Z,102323.00
2018-09-24T16:35:41.175Z,102328.00
2018-09-24T16:37:49.860Z,102333.00
2018-09-24T16:39:58.620Z,102332.00
2018-09-24T16:42:07.528Z,102337.00
2018-09-24T16:44:16.391Z,102345.00
2018-09-24T16:46:25.429Z,102347.00
2018-09-24T16:48:35.611Z,102351.00
2018-09-24T16:50:44.445Z,102360.00
2018-09-24T16:52:53.276Z,102355.00
2018-09-24T16:55:02.046Z,102360.00
2018-09-24T16:57:11.419Z,102364.00
2018-09-24T16:59:20.129Z,102366.00
2018-09-24T17:01:28.897Z,102369.00
2018-09-24T17:03:37.763Z,102377.00
2018-09-24T17:05:46.572Z,102378.00
2018-09-24T17:07:55.372Z,102373.00
2018-09-24T17:10:05.636Z,102378.00
2018-09-24T17:12:14.554Z,102381.00
2018-09-24T17:14:23.307Z,102379.00
2018-09-24T17:16:32.104Z,102389.00
2018-09-24T17:18:40.914Z,102390.00
2018-09-24T17:20:49.700Z,102398.00
2018-09-24T17:22:58.804Z,102406.00
2018-09-24T17:25:07.670Z,102402.00
2018-09-24T17:27:16.344Z,102409.00
2018-09-24T17:29:25.141Z,102408.00
2018-09-24T17:31:35.356Z,102413.00
2018-09-24T17:33:44.483Z,102410.00
2018-09-24T17:35:53.247Z,102419.00
2018-09-24T17:38:02.059Z,102419.00
2018-09-24T17:40:10.904Z,102428.00
2018-09-24T17:42:19.988Z,102428.00
2018-09-24T17:44:28.767Z,102430.00
2018-09-24T17:46:37.555Z,102435.00
2018-09-24T17:48:46.534Z,102434.00
2018-09-24T17:50:55.275Z,102448.00
2018-09-24T17:53:05.319Z,102448.00
2018-09-24T17:55:14.199Z,102453.00
2018-09-24T17:57:22.884Z,102458.00
2018-09-24T17:59:32.118Z,102460.00
2018-09-24T18:01:40.922Z,102465.00
2018-09-24T18:03:49.720Z,102468.00
2018-09-24T18:05:58.650Z,102461.00
2018-09-24T18:08:07.426Z,102464.00
2018-09-24T18:10:16.183Z,102469.00
2018-09-24T18:12:24.900Z,102470.00
2018-09-24T18:14:35.165Z,102476.00
2018-09-24T18:16:44.031Z,102481.00
2018-09-24T18:18:52.851Z,102476.00
2018-09-24T18:21:01.685Z,102481.00
2018-09-24T18:23:10.504Z,102494.00
2018-09-24T18:25:19.168Z,102498.00
2018-09-24T18:27:27.965Z,102506.00
2018-09-24T18:29:36.776Z,102499.00
2018-09-24T18:31:45.697Z,102506.00
2018-09-24T18:33:54.465Z,102504.00
2018-09-24T18:36:04.841Z,102514.00
2018-09-24T18:38:13.641Z,102515.00
2018-09-24T18:40:22.398Z,102520.00
2018-09-24T18:42:31.312Z,102523.00
2018-09-24T18:44:39.951Z,102518.00
2018-09-24T18:46:48.579Z,102527.00
2018-09-24T18:48:57.736Z,102531.00
2018-09-24T18:51:06.411Z,102532.00
2018-09-24T18:53:15.152Z,102536.00
2018-09-24T18:55:24.016Z,102531.00
2018-09-24T18:57:34.502Z,102532.00
2018-09-24T18:59:43.353Z,102537.00
2018-09-24T19:01:52.006Z,102544.00
2018-09-24T19:04:00.782Z,102552.00
2018-09-24T19:06:09.672Z,102554.00
2018-09-24T19:08:18.411Z,102555.00
2018-09-24T19:10:27.264Z,102557.00
2018-09-24T19:12:36.077Z,102562.00
2018-09-24T19:14:44.733Z,102569.00
2018-09-24T19:16:53.712Z,102573.00
2018-09-24T19:19:02.349Z,102577.00
2018-09-24T19:21:11.051Z,102576.00
2018-09-24T19:23:19.844Z,102576.00
2018-09-24T19:25:28.748Z,102588.00
2018-09-24T19:27:37.536Z,102583.00
2018-09-24T19:29:46.407Z,102586.00
2018-09-24T19:31:55.369Z,102595.00
2018-09-24T19:34:05.417Z,102599.00
2018-09-24T19:36:14.112Z,102602.00
2018-09-24T19:38:22.774Z,102606.00
2018-09-24T19:40:31.597Z,102609.00
2018-09-24T19:42:41.360Z,102614.00
2018-09-24T19:44:49.940Z,102616.00
2018-09-24T19:46:58.671Z,102614.00
2018-09-24T19:49:07.712Z,102615.00
2018-09-24T19:51:16.491Z,102624.00
2018-09-24T19:53:25.107Z,102622.00
2018-09-24T19:55:35.835Z,102628.00
2018-09-24T19:57:44.490Z,102629.00
2018-09-24T19:59:53.239Z,102633.00
2018-09-24T20:02:01.941Z,102634.00
2018-09-24T20:04:11.020Z,102634.00
2018-09-24T20:06:19.668Z,102638.00
2018-09-24T20:08:28.652Z,102642.00
2018-09-24T20:10:37.403Z,102640.00
2018-09-24T20:12:46.428Z,102639.00
2018-09-24T20:14:55.108Z,102650.00
2018-09-24T20:17:05.529Z,102651.00
2018-09-24T20:19:14.304Z,102653.00
2018-09-24T20:21:23.180Z,102658.00
2018-09-24T20:23:32.159Z,102657.00
2018-09-24T20:25:40.921Z,102660.00
2018-09-24T20:27:49.531Z,102663.00
2018-09-24T20:29:58.467Z,102660.00
2018-09-24T20:32:09.060Z,102663.00
2018-09-24T20:34:17.742Z,102673.00
2018-09-24T20:36:27.636Z,102676.00
2018-09-24T20:38:36.539Z,102673.00
2018-09-24T20:40:45.327Z,102675.00
2018-09-24T20:42:54.010Z,102678.00
2018-09-24T20:45:04.729Z,102684.00
2018-09-24T20:47:13.687Z,102689.00
2018-09-24T20:49:22.384Z,102697.00
2018-09-24T20:51:31.357Z,102703.00
2018-09-24T20:53:40.202Z,102701.00
2018-09-24T20:55:48.976Z,102702.00
2018-09-24T20:57:58.008Z,102706.00
2018-09-24T21:00:06.652Z,102704.00
2018-09-24T21:02:15.532Z,102723.00
2018-09-24T21:04:24.722Z,102721.00
2018-09-24T21:06:35.220Z,102728.00
2018-09-24T21:08:44.073Z,102737.00
2018-09-24T21:10:53.020Z,102732.00
2018-09-24T21:13:01.680Z,102743.00
2018-09-24T21:15:10.599Z,102741.00
2018-09-24T21:17:19.495Z,102741.00
2018-09-24T21:19:28.306Z,102744.00
2018-09-24T21:21:38.288Z,102751.00
2018-09-24T21:23:48.444Z,102751.00
2018-09-24T21:25:57.787Z,102749.00
2018-09-24T21:28:06.680Z,102751.00
2018-09-24T21:30:15.513Z,102757.00
2018-09-24T21:32:27.751Z,102762.00
2018-09-24T21:34:36.636Z,102764.00
2018-09-24T21:36:45.349Z,102764.00
2018-09-24T21:38:54.127Z,102768.00
2018-09-24T21:41:04.161Z,102772.00
2018-09-24T21:43:12.987Z,102772.00
2018-09-24T21:45:21.753Z,102773.00
2018-09-24T21:47:30.556Z,102770.00
2018-09-24T21:49:39.455Z,102775.00
2018-09-24T21:51:48.114Z,102779.00
2018-09-24T21:53:56.919Z,102779.00
2018-09-24T21:56:05.715Z,102784.00
2018-09-24T21:58:14.573Z,102783.00
2018-09-24T22:00:23.479Z,102790.00
2018-09-24T22:02:32.408Z,102786.00
2018-09-24T22:04:41.128Z,102792.00
2018-09-24T22:06:49.948Z,102794.00
2018-09-24T22:08:58.691Z,102797.00
2018-09-24T22:11:07.360Z,102803.00
2018-09-24T22:13:16.098Z,102805.00
2018-09-24T22:15:24.842Z,102807.00
2018-09-24T22:17:35.112Z,102806.00
2018-09-24T22:19:43.792Z,102812.00
2018-09-24T22:21:52.526Z,102809.00
2018-09-24T22:24:01.432Z,102811.00
2018-09-24T22:26:10.143Z,102817.00
2018-09-24T22:28:18.927Z,102817.00
2018-09-24T22:30:27.869Z,102821.00
2018-09-24T22:32:36.858Z,102824.00
2018-09-24T22:34:45.796Z,102832.00
2018-09-24T22:36:54.397Z,102835.00
2018-09-24T22:39:04.893Z,102840.00
2018-09-24T22:41:13.627Z,102839.00
2018-09-24T22:43:22.244Z,102834.00
2018-09-24T22:45:31.154Z,102834.00
2018-09-24T22:47:39.954Z,102836.00
2018-09-24T22:49:48.952Z,102832.00
2018-09-24T22:51:58.476Z,102844.00
2018-09-24T22:54:07.327Z,102843.00
2018-09-24T22:56:16.145Z,102846.00
2018-09-24T22:58:24.780Z,102847.00
2018-09-24T23:00:35.064Z,102847.00
2018-09-24T23:02:43.842Z,102847.00
2018-09-24T23:04:52.507Z,102851.00
2018-09-24T23:07:01.255Z,102851.00
2018-09-24T23:09:11.304Z,102854.00
2018-09-24T23:11:20.021Z,102854.00
2018-09-24T23:13:28.670Z,102861.00
2018-09-24T23:15:37.359Z,102866.00
2018-09-24T23:17:46.072Z,102863.00
2018-09-24T23:19:54.827Z,102867.00
2018-09-24T23:22:05.040Z,102866.00
2018-09-24T23:24:13.895Z,102869.00
2018-09-24T23:26:22.521Z,102878.00
2018-09-24T23:28:31.343Z,102881.00
2018-09-24T23:30:40.189Z,102884.00
2018-09-24T23:32:49.247Z,102884.00
2018-09-24T23:34:57.984Z,102879.00
2018-09-24T23:37:06.909Z,102888.00
2018-09-24T23:39:15.760Z,102888.00
2018-09-24T23:41:24.540Z,102890.00
2018-09-24T23:43:34.967Z,102891.00
2018-09-24T23:45:43.722Z,102900.00
2018-09-24T23:47:52.637Z,102901.00
2018-09-24T23:50:01.480Z,102903.00
2018-09-24T23:52:10.272Z,102904.00
2018-09-24T23:54:19.096Z,102908.00
2018-09-24T23:56:28.056Z,102911.00
2018-09-24T23:58:36.965Z,102916.00
